aviador You're here:

KDMO Decoded Metar

SEDALIA in MO, USA
Report Time2017-08-22 21:53:00
UTC Time2017-08-22 22:31:49
Flight Rules vfr VFR
Wind330° at 11 kt
W.Decomp.*RWY 36: 9.2 kt HW 6 kt LCW
RWY 05: 1.3 kt HW 10.9 kt LCW
W.Rank330° ranks 15
Current wind is above 330° avg. (8.9)
Visibility9999 m
Phenomena:N/A
Clouds:Few 038 Hf
Expected CloudBase > 4,000 ft AGL from Temp-Dew spread
CeilingNone
Temp28°C (ISA +15)
Dew Point18°C (55% RH)
Heat Index28.9°C
AAT26.9°C
QNH1018 hPa
Density Alt2,707 ft
Elevation899 ft
Report Wrong Elevation
Raw Report
KDMO 222153Z AUTO 33011KT 10SM FEW038 28/18 A3007 RMK AO2 SLP176
T02780183=

Extra information for KDMO:More info

Metar Taf Metar & Taf Last 4 Metars F.Rules Stats Wind Profile Meteogram Temp Stats Airport Information Weather charts Add Link Nearby VenuesMetar ALERT Operation Metar Decoded Social comments

AIRNAV info for KDMO